createdAt,value
2019-02-09T00:00:25.292Z,0.00
2019-02-09T00:01:25.256Z,0.00
2019-02-09T00:02:25.268Z,0.00
2019-02-09T00:03:25.268Z,0.00
2019-02-09T00:04:25.228Z,0.00
2019-02-09T00:05:25.230Z,0.00
2019-02-09T00:06:25.220Z,0.00
2019-02-09T00:07:25.190Z,0.00
2019-02-09T00:08:25.182Z,0.00
2019-02-09T00:09:25.162Z,0.00
2019-02-09T00:10:25.202Z,0.00
2019-02-09T00:11:25.175Z,0.00
2019-02-09T00:12:25.128Z,0.00
2019-02-09T00:13:25.130Z,0.00
2019-02-09T00:14:25.130Z,0.00
2019-02-09T00:15:25.094Z,0.00
2019-02-09T00:16:25.094Z,0.00
2019-02-09T00:17:25.070Z,0.00
2019-02-09T00:18:25.081Z,0.00
2019-02-09T00:19:25.066Z,0.00
2019-02-09T00:20:25.044Z,0.00
2019-02-09T00:21:25.037Z,0.00
2019-02-09T00:22:25.017Z,0.00
2019-02-09T00:23:25.004Z,0.00
2019-02-09T00:24:25.005Z,0.00
2019-02-09T00:25:25.011Z,0.00
2019-02-09T00:26:24.981Z,0.00
2019-02-09T00:27:24.963Z,0.00
2019-02-09T00:28:24.949Z,0.00
2019-02-09T00:29:24.946Z,0.00
2019-02-09T00:30:24.943Z,0.00
2019-02-09T00:31:24.925Z,0.00
2019-02-09T00:32:24.916Z,0.00
2019-02-09T00:33:24.894Z,0.00
2019-02-09T00:34:24.883Z,0.00
2019-02-09T00:35:24.874Z,0.00
2019-02-09T00:36:24.869Z,0.00
2019-02-09T00:37:24.869Z,0.00
2019-02-09T00:38:24.841Z,0.00
2019-02-09T00:39:24.825Z,0.00
2019-02-09T00:40:24.816Z,0.00
2019-02-09T00:41:24.813Z,0.00
2019-02-09T00:42:24.804Z,0.00
2019-02-09T00:43:24.816Z,0.00
2019-02-09T00:44:24.779Z,0.00
2019-02-09T00:45:24.768Z,0.00
2019-02-09T00:46:24.749Z,0.00
2019-02-09T00:47:24.744Z,0.00
2019-02-09T00:48:24.732Z,0.00
2019-02-09T00:49:24.718Z,0.00
2019-02-09T00:50:24.708Z,0.00
2019-02-09T00:51:24.716Z,0.00
2019-02-09T00:52:24.685Z,0.00
2019-02-09T00:53:24.680Z,0.00
2019-02-09T00:54:24.685Z,0.00
2019-02-09T00:55:24.678Z,0.00
2019-02-09T00:56:24.646Z,0.00
2019-02-09T00:57:24.652Z,0.00
2019-02-09T00:58:24.620Z,0.00
2019-02-09T00:59:24.625Z,0.00
2019-02-09T01:00:24.624Z,0.00
2019-02-09T01:01:24.586Z,0.00
2019-02-09T01:02:24.593Z,0.00
2019-02-09T01:03:24.570Z,0.00
2019-02-09T01:04:24.555Z,0.00
2019-02-09T01:05:24.591Z,0.00
2019-02-09T01:06:24.536Z,0.00
2019-02-09T01:07:24.519Z,0.00
2019-02-09T01:08:24.513Z,0.00
2019-02-09T01:09:24.503Z,0.00
2019-02-09T01:10:24.488Z,0.00
2019-02-09T01:11:24.480Z,0.00
2019-02-09T01:12:24.470Z,0.00
2019-02-09T01:13:24.493Z,0.00
2019-02-09T01:14:24.477Z,0.00
2019-02-09T01:15:24.436Z,0.00
2019-02-09T01:16:24.418Z,0.00
2019-02-09T01:17:24.412Z,0.00
2019-02-09T01:18:24.411Z,0.00
2019-02-09T01:19:24.422Z,0.00
2019-02-09T01:20:24.408Z,0.00
2019-02-09T01:21:24.400Z,0.00
2019-02-09T01:22:24.354Z,0.00
2019-02-09T01:23:24.357Z,0.00
2019-02-09T01:24:24.345Z,0.00
2019-02-09T01:25:24.350Z,0.00
2019-02-09T01:26:24.313Z,0.00
2019-02-09T01:27:24.300Z,0.00
2019-02-09T01:28:24.285Z,0.00
2019-02-09T01:29:24.314Z,0.00
2019-02-09T01:30:24.305Z,0.00
2019-02-09T01:31:24.255Z,0.00
2019-02-09T01:32:24.244Z,0.00
2019-02-09T01:33:24.266Z,0.00
2019-02-09T01:34:24.221Z,0.00
2019-02-09T01:35:24.221Z,0.00
2019-02-09T01:36:24.199Z,0.00
2019-02-09T01:37:24.192Z,0.00
2019-02-09T01:38:24.176Z,0.00
2019-02-09T01:39:24.169Z,0.00
2019-02-09T01:40:24.187Z,0.00
2019-02-09T01:41:24.143Z,0.00
2019-02-09T01:42:24.140Z,0.00
2019-02-09T01:43:24.123Z,0.00
2019-02-09T01:44:24.107Z,0.00
2019-02-09T01:45:24.110Z,0.00
2019-02-09T01:46:24.104Z,0.00
2019-02-09T01:47:24.075Z,0.00
2019-02-09T01:48:24.063Z,0.00
2019-02-09T01:49:24.059Z,0.00
2019-02-09T01:50:24.074Z,0.00
2019-02-09T01:51:24.058Z,0.00
2019-02-09T01:52:24.032Z,0.00
2019-02-09T01:53:24.015Z,0.00
2019-02-09T01:54:24.003Z,0.00
2019-02-09T01:55:23.986Z,0.00
2019-02-09T01:56:23.994Z,0.00
2019-02-09T01:57:23.964Z,0.00
2019-02-09T01:58:23.953Z,0.00
2019-02-09T01:59:23.968Z,0.00
2019-02-09T02:00:23.936Z,0.00
2019-02-09T02:01:23.923Z,0.00
2019-02-09T02:02:23.945Z,0.00
2019-02-09T02:03:23.902Z,0.00
2019-02-09T02:04:23.889Z,0.00
2019-02-09T02:05:23.910Z,0.00
2019-02-09T02:06:23.869Z,0.00
2019-02-09T02:07:23.875Z,0.00
2019-02-09T02:08:23.842Z,0.00
2019-02-09T02:09:23.838Z,0.00
2019-02-09T02:10:23.821Z,0.00
2019-02-09T02:11:23.842Z,0.00
2019-02-09T02:12:23.823Z,0.00
2019-02-09T02:13:23.839Z,0.00
2019-02-09T02:14:23.781Z,0.00
2019-02-09T02:15:23.790Z,0.00
2019-02-09T02:16:23.757Z,0.00
2019-02-09T02:17:23.754Z,0.00
2019-02-09T02:18:23.755Z,0.00
2019-02-09T02:19:23.761Z,0.00
2019-02-09T02:20:23.719Z,0.00
2019-02-09T02:21:23.725Z,0.00
2019-02-09T02:22:23.718Z,0.00
2019-02-09T02:23:23.708Z,0.00
2019-02-09T02:24:23.695Z,0.00
2019-02-09T02:25:23.787Z,0.00
2019-02-09T02:26:23.684Z,0.00
2019-02-09T02:27:23.656Z,0.00
2019-02-09T02:28:23.631Z,0.00
2019-02-09T02:29:23.643Z,0.00
2019-02-09T02:30:23.618Z,0.00
2019-02-09T02:31:23.606Z,0.00
2019-02-09T02:32:23.608Z,0.00
2019-02-09T02:33:23.572Z,0.00
2019-02-09T02:34:23.569Z,0.00
2019-02-09T02:35:23.561Z,0.00
2019-02-09T02:36:23.552Z,0.00
2019-02-09T02:37:23.546Z,0.00
2019-02-09T02:38:23.527Z,0.00
2019-02-09T02:39:23.509Z,0.00
2019-02-09T02:40:23.512Z,0.00
2019-02-09T02:41:23.485Z,0.00
2019-02-09T02:42:23.493Z,0.00
2019-02-09T02:43:23.473Z,0.00
2019-02-09T02:44:23.469Z,0.00
2019-02-09T02:45:23.438Z,0.00
2019-02-09T02:46:23.457Z,0.00
2019-02-09T02:47:23.424Z,0.00
2019-02-09T02:48:23.404Z,0.00
2019-02-09T02:49:23.401Z,0.00
2019-02-09T02:50:23.391Z,0.00
2019-02-09T02:51:23.389Z,0.00
2019-02-09T02:52:23.362Z,0.00
2019-02-09T02:53:23.351Z,0.00
2019-02-09T02:54:23.341Z,0.00
2019-02-09T02:55:23.341Z,0.00
2019-02-09T02:56:23.354Z,0.00
2019-02-09T02:57:23.320Z,0.00
2019-02-09T02:58:23.295Z,0.00
2019-02-09T02:59:23.285Z,0.00
2019-02-09T03:00:31.738Z,0.00
2019-02-09T03:01:24.283Z,0.00
2019-02-09T03:02:23.271Z,0.00
2019-02-09T03:03:23.240Z,0.00
2019-02-09T03:04:23.227Z,0.00
2019-02-09T03:05:23.227Z,0.00
2019-02-09T03:06:23.205Z,0.00
2019-02-09T03:07:23.200Z,0.00
2019-02-09T03:08:23.208Z,0.00
2019-02-09T03:09:23.171Z,0.00
2019-02-09T03:10:23.160Z,0.00
2019-02-09T03:11:23.149Z,0.00
2019-02-09T03:12:23.151Z,0.00
2019-02-09T03:13:23.140Z,0.00
2019-02-09T03:14:23.131Z,0.00
2019-02-09T03:15:23.116Z,0.00
2019-02-09T03:16:23.098Z,0.00
2019-02-09T03:17:23.085Z,0.00
2019-02-09T03:18:23.084Z,0.00
2019-02-09T03:19:23.064Z,0.00
2019-02-09T03:20:23.081Z,0.00
2019-02-09T03:21:23.037Z,0.00
2019-02-09T03:22:23.029Z,0.00
2019-02-09T03:23:23.027Z,0.00
2019-02-09T03:24:23.004Z,0.00
2019-02-09T03:25:22.997Z,0.00
2019-02-09T03:26:23.018Z,0.00
2019-02-09T03:27:22.971Z,0.00
2019-02-09T03:28:22.982Z,0.00
2019-02-09T03:29:22.957Z,0.00
2019-02-09T03:30:22.942Z,0.00
2019-02-09T03:31:22.949Z,0.00
2019-02-09T03:32:22.933Z,0.00
2019-02-09T03:33:22.989Z,0.00
2019-02-09T03:34:22.934Z,0.00
2019-02-09T03:35:22.894Z,0.00
2019-02-09T03:36:22.876Z,0.00
2019-02-09T03:37:22.867Z,0.00
2019-02-09T03:38:22.858Z,0.00
2019-02-09T03:39:22.846Z,0.00
2019-02-09T03:40:22.838Z,0.00
2019-02-09T03:41:22.825Z,0.00
2019-02-09T03:42:22.848Z,0.00
2019-02-09T03:43:22.797Z,0.00
2019-02-09T03:44:22.801Z,0.00
2019-02-09T03:45:22.787Z,0.00
2019-02-09T03:46:22.764Z,0.00
2019-02-09T03:47:22.757Z,0.00
2019-02-09T03:48:22.756Z,0.00
2019-02-09T03:49:22.757Z,0.00
2019-02-09T03:50:22.732Z,0.00
2019-02-09T03:51:22.713Z,0.00
2019-02-09T03:52:22.699Z,0.00
2019-02-09T03:53:22.790Z,0.00
2019-02-09T03:54:22.681Z,0.00
2019-02-09T03:55:22.687Z,0.00
2019-02-09T03:56:22.686Z,0.00
2019-02-09T03:57:22.657Z,0.00
2019-02-09T03:58:22.644Z,0.00
2019-02-09T03:59:22.630Z,0.00
2019-02-09T04:00:22.627Z,0.00
2019-02-09T04:01:22.606Z,0.00
2019-02-09T04:02:22.591Z,0.00
2019-02-09T04:03:22.604Z,0.00
2019-02-09T04:04:22.571Z,0.00
2019-02-09T04:05:22.560Z,0.00
2019-02-09T04:06:22.575Z,0.00
2019-02-09T04:07:22.532Z,0.00
2019-02-09T04:08:22.522Z,0.00
2019-02-09T04:09:22.522Z,0.00
2019-02-09T04:10:22.509Z,0.00
2019-02-09T04:11:22.502Z,0.00
2019-02-09T04:12:22.484Z,0.00
2019-02-09T04:13:22.481Z,0.00
2019-02-09T04:14:22.471Z,0.00
2019-02-09T04:15:22.452Z,0.00
2019-02-09T04:16:22.445Z,0.00
2019-02-09T04:17:22.456Z,0.00
2019-02-09T04:18:22.417Z,0.00
2019-02-09T04:19:22.416Z,0.00
2019-02-09T04:20:22.390Z,0.00
2019-02-09T04:21:22.380Z,0.00
2019-02-09T04:22:22.378Z,0.00
2019-02-09T04:23:22.417Z,0.00
2019-02-09T04:24:22.346Z,0.00
2019-02-09T04:25:22.348Z,0.00
2019-02-09T04:26:22.326Z,0.00
2019-02-09T04:27:22.313Z,0.00
2019-02-09T04:28:22.351Z,0.00
2019-02-09T04:29:22.293Z,0.00
2019-02-09T04:30:22.282Z,0.00
2019-02-09T04:31:22.272Z,0.00
2019-02-09T04:32:22.261Z,0.00
2019-02-09T04:33:22.246Z,0.00
2019-02-09T04:34:22.257Z,0.00
2019-02-09T04:35:22.231Z,0.00
2019-02-09T04:36:22.215Z,0.00
2019-02-09T04:37:22.206Z,0.00
2019-02-09T04:38:22.205Z,0.00
2019-02-09T04:39:22.204Z,0.00
2019-02-09T04:40:22.176Z,0.00
2019-02-09T04:41:22.177Z,0.00
2019-02-09T04:42:22.149Z,0.00
2019-02-09T04:43:22.147Z,0.00
2019-02-09T04:44:22.131Z,0.00
2019-02-09T04:45:22.128Z,0.00
2019-02-09T04:46:22.102Z,0.00
2019-02-09T04:47:22.124Z,0.00
2019-02-09T04:48:22.926Z,0.00
2019-02-09T04:49:22.073Z,0.00
2019-02-09T04:50:22.075Z,0.00
2019-02-09T04:51:22.053Z,0.00
2019-02-09T04:52:22.039Z,0.00
2019-02-09T04:53:22.029Z,0.00
2019-02-09T04:54:22.048Z,0.00
2019-02-09T04:55:22.013Z,0.00
2019-02-09T04:56:21.998Z,0.00
2019-02-09T04:57:21.986Z,0.00
2019-02-09T04:58:21.979Z,0.00
2019-02-09T04:59:21.965Z,0.00
2019-02-09T05:00:21.952Z,0.00
2019-02-09T05:01:21.990Z,0.00
2019-02-09T05:02:21.956Z,0.00
2019-02-09T05:03:21.918Z,0.00
2019-02-09T05:04:21.918Z,0.00
2019-02-09T05:05:21.906Z,0.00
2019-02-09T05:06:21.894Z,0.00
2019-02-09T05:07:21.893Z,0.00
2019-02-09T05:08:21.876Z,0.00
2019-02-09T05:09:21.856Z,0.00
2019-02-09T05:10:21.908Z,0.00
2019-02-09T05:11:21.853Z,0.00
2019-02-09T05:12:21.849Z,0.00
2019-02-09T05:13:21.829Z,0.00
2019-02-09T05:14:21.829Z,0.00
2019-02-09T05:15:21.805Z,0.00
2019-02-09T05:16:21.773Z,0.00
2019-02-09T05:17:21.774Z,0.00
2019-02-09T05:18:21.768Z,0.00
2019-02-09T05:19:21.744Z,0.00
2019-02-09T05:20:21.740Z,0.00
2019-02-09T05:21:21.731Z,0.00
2019-02-09T05:22:21.709Z,0.00
2019-02-09T05:23:21.720Z,0.00
2019-02-09T05:24:21.691Z,0.00
2019-02-09T05:25:21.691Z,0.00
2019-02-09T05:26:21.692Z,0.00
2019-02-09T05:27:21.656Z,0.00
2019-02-09T05:28:21.645Z,0.00
2019-02-09T05:29:21.636Z,0.00
2019-02-09T05:30:21.634Z,0.00
2019-02-09T05:31:23.432Z,0.00
2019-02-09T05:32:21.617Z,0.00
2019-02-09T05:33:21.587Z,0.00
2019-02-09T05:34:21.603Z,0.00
2019-02-09T05:35:21.570Z,0.00
2019-02-09T05:36:21.559Z,0.00
2019-02-09T05:37:21.548Z,0.00
2019-02-09T05:38:21.549Z,0.00
2019-02-09T05:39:21.532Z,0.00
2019-02-09T05:40:21.546Z,0.00
2019-02-09T05:41:21.505Z,0.00
2019-02-09T05:42:21.490Z,0.00
2019-02-09T05:43:21.485Z,0.00
2019-02-09T05:44:21.478Z,0.00
2019-02-09T05:45:21.484Z,0.00
2019-02-09T05:46:21.457Z,0.00
2019-02-09T05:47:21.437Z,0.00
2019-02-09T05:48:21.433Z,0.00
2019-02-09T05:49:21.419Z,0.00
2019-02-09T05:50:21.404Z,0.00
2019-02-09T05:51:21.396Z,0.00
2019-02-09T05:52:21.395Z,0.00
2019-02-09T05:53:21.441Z,0.00
2019-02-09T05:54:21.398Z,0.00
2019-02-09T05:55:21.353Z,0.00
2019-02-09T05:56:21.341Z,0.00
2019-02-09T05:57:21.331Z,0.00
2019-02-09T05:58:21.324Z,0.00
2019-02-09T05:59:21.313Z,0.00
2019-02-09T06:00:21.291Z,0.00
2019-02-09T06:01:21.297Z,0.00
2019-02-09T06:02:21.280Z,0.00
2019-02-09T06:03:21.257Z,0.00
2019-02-09T06:04:21.253Z,0.00
2019-02-09T06:05:21.260Z,0.00
2019-02-09T06:06:21.222Z,0.00
2019-02-09T06:07:21.223Z,0.00
2019-02-09T06:08:21.205Z,0.00
2019-02-09T06:09:21.250Z,0.00
2019-02-09T06:10:21.193Z,0.00
2019-02-09T06:11:21.192Z,0.00
2019-02-09T06:12:21.196Z,0.00
2019-02-09T06:13:21.152Z,0.00
2019-02-09T06:14:21.142Z,0.00
2019-02-09T06:15:21.128Z,0.00
2019-02-09T06:16:21.120Z,0.00
2019-02-09T06:17:21.111Z,0.00
2019-02-09T06:18:21.111Z,0.00
2019-02-09T06:19:21.101Z,0.00
2019-02-09T06:20:21.076Z,0.00
2019-02-09T06:21:21.067Z,0.00
2019-02-09T06:22:21.058Z,0.00
2019-02-09T06:23:21.062Z,0.00
2019-02-09T06:24:21.028Z,0.00
2019-02-09T06:25:21.047Z,0.00
2019-02-09T06:26:21.003Z,0.00
2019-02-09T06:27:21.012Z,0.00
2019-02-09T06:28:20.990Z,0.00
2019-02-09T06:29:20.979Z,0.00
2019-02-09T06:30:20.960Z,0.00
2019-02-09T06:31:20.992Z,0.00
2019-02-09T06:32:20.959Z,0.00
2019-02-09T06:33:20.984Z,0.00
2019-02-09T06:34:20.945Z,0.00
2019-02-09T06:35:20.904Z,0.00
2019-02-09T06:36:20.895Z,0.00
2019-02-09T06:37:20.883Z,0.00
2019-02-09T06:38:20.877Z,0.00
2019-02-09T06:39:20.862Z,0.00
2019-02-09T06:40:20.852Z,0.00
2019-02-09T06:41:20.856Z,0.00
2019-02-09T06:42:20.826Z,0.00
2019-02-09T06:43:20.851Z,0.00
2019-02-09T06:44:20.806Z,0.00
2019-02-09T06:45:20.806Z,0.00
2019-02-09T06:46:20.788Z,0.00
2019-02-09T06:47:20.776Z,0.00
2019-02-09T06:48:20.792Z,0.00
2019-02-09T06:49:20.752Z,0.00
2019-02-09T06:50:20.739Z,0.00
2019-02-09T06:51:20.725Z,0.00
2019-02-09T06:52:20.721Z,0.00
2019-02-09T06:53:20.705Z,0.00
2019-02-09T06:54:20.730Z,0.00
2019-02-09T06:55:20.683Z,0.00
2019-02-09T06:56:20.672Z,0.00
2019-02-09T06:57:20.659Z,0.00
2019-02-09T06:58:20.645Z,0.00
2019-02-09T06:59:20.644Z,0.00
2019-02-09T07:00:20.962Z,0.00
2019-02-09T07:01:20.616Z,0.00
2019-02-09T07:02:20.605Z,0.00
2019-02-09T07:03:20.593Z,0.00
2019-02-09T07:04:20.609Z,0.00
2019-02-09T07:05:20.577Z,5.62
2019-02-09T07:06:20.575Z,5.62
2019-02-09T07:07:20.566Z,5.62
2019-02-09T07:08:20.537Z,5.62
2019-02-09T07:09:20.524Z,5.62
2019-02-09T07:10:20.523Z,5.62
2019-02-09T07:11:20.508Z,5.62
2019-02-09T07:12:20.506Z,5.62
2019-02-09T07:13:20.495Z,5.62
2019-02-09T07:14:20.479Z,5.62
2019-02-09T07:15:20.456Z,5.62
2019-02-09T07:16:20.453Z,11.25
2019-02-09T07:17:20.436Z,11.25
2019-02-09T07:18:20.463Z,5.62
2019-02-09T07:19:20.432Z,5.62
2019-02-09T07:20:20.404Z,5.62
2019-02-09T07:21:20.391Z,5.62
2019-02-09T07:22:20.382Z,5.62
2019-02-09T07:23:20.373Z,5.62
2019-02-09T07:24:20.359Z,5.62
2019-02-09T07:25:20.357Z,5.62
2019-02-09T07:26:20.342Z,5.62
2019-02-09T07:27:20.325Z,5.62
2019-02-09T07:28:20.356Z,11.25
2019-02-09T07:29:20.305Z,11.25
2019-02-09T07:30:20.326Z,11.25
2019-02-09T07:31:20.283Z,11.25
2019-02-09T07:32:20.298Z,11.25
2019-02-09T07:33:20.270Z,11.25
2019-02-09T07:34:20.291Z,11.25
2019-02-09T07:35:20.234Z,11.25
2019-02-09T07:36:20.244Z,11.25
2019-02-09T07:37:20.225Z,11.25
2019-02-09T07:38:20.210Z,11.25
2019-02-09T07:39:20.188Z,11.25
2019-02-09T07:40:20.185Z,16.88
2019-02-09T07:41:20.203Z,16.88
2019-02-09T07:42:20.160Z,16.88
2019-02-09T07:43:20.155Z,16.88
2019-02-09T07:44:20.137Z,16.88
2019-02-09T07:45:20.122Z,16.88
2019-02-09T07:46:20.130Z,16.88
2019-02-09T07:47:20.104Z,16.88
2019-02-09T07:48:20.101Z,16.88
2019-02-09T07:49:20.081Z,16.88
2019-02-09T07:50:20.069Z,16.88
2019-02-09T07:51:20.055Z,22.50
2019-02-09T07:52:20.062Z,22.50
2019-02-09T07:53:20.046Z,22.50
2019-02-09T07:54:20.030Z,22.50
2019-02-09T07:55:20.014Z,28.12
2019-02-09T07:56:20.026Z,28.12
2019-02-09T07:57:20.038Z,28.12
2019-02-09T07:58:19.995Z,28.12
2019-02-09T07:59:19.980Z,33.75
2019-02-09T08:00:19.969Z,33.75
2019-02-09T08:01:19.968Z,33.75
2019-02-09T08:02:19.935Z,33.75
2019-02-09T08:03:19.938Z,33.75
2019-02-09T08:04:19.916Z,33.75
2019-02-09T08:05:19.907Z,33.75
2019-02-09T08:06:19.927Z,33.75
2019-02-09T08:07:19.920Z,28.12
2019-02-09T08:08:19.873Z,22.50
2019-02-09T08:09:19.889Z,16.88
2019-02-09T08:10:19.853Z,16.88
2019-02-09T08:11:19.837Z,22.50
2019-02-09T08:12:19.843Z,22.50
2019-02-09T08:13:19.812Z,22.50
2019-02-09T08:14:19.806Z,22.50
2019-02-09T08:15:19.820Z,28.12
2019-02-09T08:16:19.828Z,33.75
2019-02-09T08:17:19.772Z,33.75
2019-02-09T08:18:19.776Z,33.75
2019-02-09T08:19:19.757Z,39.38
2019-02-09T08:20:19.737Z,39.38
2019-02-09T08:21:19.731Z,39.38
2019-02-09T08:22:19.722Z,33.75
2019-02-09T08:23:19.701Z,33.75
2019-02-09T08:24:19.694Z,33.75
2019-02-09T08:25:19.704Z,39.38
2019-02-09T08:26:19.679Z,39.38
2019-02-09T08:27:23.675Z,39.38
2019-02-09T08:28:19.666Z,39.38
2019-02-09T08:29:19.674Z,39.38
2019-02-09T08:30:19.638Z,39.38
2019-02-09T08:31:19.626Z,33.75
2019-02-09T08:32:19.605Z,33.75
2019-02-09T08:33:19.607Z,33.75
2019-02-09T08:34:19.606Z,33.75
2019-02-09T08:35:19.583Z,33.75
2019-02-09T08:36:19.564Z,33.75
2019-02-09T08:37:19.586Z,33.75
2019-02-09T08:38:19.548Z,33.75
2019-02-09T08:39:19.529Z,33.75
2019-02-09T08:40:19.525Z,39.38
2019-02-09T08:41:19.500Z,39.38
2019-02-09T08:42:19.546Z,39.38
2019-02-09T08:43:19.499Z,39.38
2019-02-09T08:44:19.477Z,39.38
2019-02-09T08:45:19.477Z,39.38
2019-02-09T08:46:19.483Z,39.38
2019-02-09T08:47:19.459Z,39.38
2019-02-09T08:48:19.445Z,39.38
2019-02-09T08:49:19.442Z,45.00
2019-02-09T08:50:19.402Z,50.62
2019-02-09T08:51:19.430Z,50.62
2019-02-09T08:52:19.415Z,50.62
2019-02-09T08:53:19.375Z,45.00
2019-02-09T08:54:19.365Z,45.00
2019-02-09T08:55:19.351Z,45.00
2019-02-09T08:56:19.346Z,45.00
2019-02-09T08:57:19.378Z,50.62
2019-02-09T08:58:19.319Z,50.62
2019-02-09T08:59:19.302Z,50.62
2019-02-09T09:00:19.294Z,56.25
2019-02-09T09:01:19.282Z,56.25
2019-02-09T09:02:20.637Z,50.62
2019-02-09T09:03:19.284Z,45.00
2019-02-09T09:04:19.279Z,45.00
2019-02-09T09:05:19.253Z,39.38
2019-02-09T09:06:19.229Z,39.38
2019-02-09T09:07:19.232Z,33.75
2019-02-09T09:08:19.203Z,33.75
2019-02-09T09:09:19.193Z,33.75
2019-02-09T09:10:19.199Z,33.75
2019-02-09T09:11:19.175Z,39.38
2019-02-09T09:12:19.178Z,39.38
2019-02-09T09:13:19.151Z,39.38
2019-02-09T09:14:19.146Z,45.00
2019-02-09T09:15:19.125Z,45.00
2019-02-09T09:16:19.130Z,39.38
2019-02-09T09:17:19.135Z,45.00
2019-02-09T09:18:19.100Z,45.00
2019-02-09T09:19:19.102Z,39.38
2019-02-09T09:20:19.083Z,67.50
2019-02-09T09:21:19.082Z,67.50
2019-02-09T09:22:19.053Z,61.88
2019-02-09T09:23:19.053Z,61.88
2019-02-09T09:24:19.027Z,56.25
2019-02-09T09:25:19.056Z,56.25
2019-02-09T09:26:19.006Z,56.25
2019-02-09T09:27:19.048Z,61.88
2019-02-09T09:28:18.995Z,61.88
2019-02-09T09:29:18.993Z,61.88
2019-02-09T09:30:19.024Z,61.88
2019-02-09T09:31:18.948Z,61.88
2019-02-09T09:32:18.936Z,67.50
2019-02-09T09:33:18.940Z,73.12
2019-02-09T09:34:18.947Z,73.12
2019-02-09T09:35:18.930Z,73.12
2019-02-09T09:36:18.895Z,67.50
2019-02-09T09:37:18.891Z,67.50
2019-02-09T09:38:18.893Z,73.12
2019-02-09T09:39:18.869Z,73.12
2019-02-09T09:40:18.856Z,78.75
2019-02-09T09:41:18.838Z,78.75
2019-02-09T09:42:18.831Z,73.12
2019-02-09T09:43:18.826Z,73.12
2019-02-09T09:44:18.863Z,73.12
2019-02-09T09:45:18.795Z,73.12
2019-02-09T09:46:18.787Z,73.12
2019-02-09T09:47:18.769Z,78.75
2019-02-09T09:48:18.780Z,78.75
2019-02-09T09:49:18.769Z,78.75
2019-02-09T09:50:18.736Z,78.75
2019-02-09T09:51:18.733Z,78.75
2019-02-09T09:52:18.725Z,78.75
2019-02-09T09:53:18.732Z,73.12
2019-02-09T09:54:18.706Z,61.88
2019-02-09T09:55:18.680Z,56.25
2019-02-09T09:56:18.690Z,56.25
2019-02-09T09:57:18.657Z,33.75
2019-02-09T09:58:18.652Z,28.12
2019-02-09T09:59:18.661Z,22.50
2019-02-09T10:00:18.623Z,22.50
2019-02-09T10:01:18.629Z,22.50
2019-02-09T10:02:18.629Z,22.50
2019-02-09T10:03:18.607Z,22.50
2019-02-09T10:04:18.612Z,22.50
2019-02-09T10:05:18.580Z,22.50
2019-02-09T10:06:18.571Z,22.50
2019-02-09T10:07:18.578Z,22.50
2019-02-09T10:08:18.548Z,22.50
2019-02-09T10:09:18.555Z,22.50
2019-02-09T10:10:18.525Z,22.50
2019-02-09T10:11:18.507Z,22.50
2019-02-09T10:12:18.500Z,22.50
2019-02-09T10:13:18.524Z,22.50
2019-02-09T10:14:18.475Z,22.50
2019-02-09T10:15:18.456Z,22.50
2019-02-09T10:16:18.456Z,22.50
2019-02-09T10:17:18.456Z,22.50
2019-02-09T10:18:18.468Z,22.50
2019-02-09T10:19:18.423Z,22.50
2019-02-09T10:20:18.414Z,22.50
2019-02-09T10:21:18.393Z,22.50
2019-02-09T10:22:18.410Z,22.50
2019-02-09T10:23:18.369Z,22.50
2019-02-09T10:24:18.394Z,22.50
2019-02-09T10:25:18.350Z,28.12
2019-02-09T10:26:18.358Z,28.12
2019-02-09T10:27:18.344Z,33.75
2019-02-09T10:28:18.335Z,33.75
2019-02-09T10:29:18.300Z,33.75
2019-02-09T10:30:18.295Z,33.75
2019-02-09T10:31:18.292Z,33.75
2019-02-09T10:32:18.303Z,33.75
2019-02-09T10:33:18.260Z,33.75
2019-02-09T10:34:18.262Z,33.75
2019-02-09T10:35:18.271Z,33.75
2019-02-09T10:36:18.226Z,39.38
2019-02-09T10:37:18.214Z,39.38
2019-02-09T10:38:18.202Z,39.38
2019-02-09T10:39:18.225Z,45.00
2019-02-09T10:40:18.210Z,45.00
2019-02-09T10:41:18.192Z,45.00
2019-02-09T10:42:18.191Z,45.00
2019-02-09T10:43:18.156Z,45.00
2019-02-09T10:44:18.176Z,45.00
2019-02-09T10:45:18.149Z,45.00
2019-02-09T10:46:18.143Z,45.00
2019-02-09T10:47:18.121Z,50.62
2019-02-09T10:48:18.098Z,56.25
2019-02-09T10:49:18.085Z,56.25
2019-02-09T10:50:18.069Z,56.25
2019-02-09T10:51:18.070Z,56.25
2019-02-09T10:52:19.158Z,56.25
2019-02-09T10:53:18.028Z,56.25
2019-02-09T10:54:18.035Z,56.25
2019-02-09T10:55:18.043Z,50.62
2019-02-09T10:56:18.025Z,50.62
2019-02-09T10:57:18.016Z,56.25
2019-02-09T10:58:17.981Z,56.25
2019-02-09T10:59:17.991Z,61.88
2019-02-09T11:00:17.990Z,67.50
2019-02-09T11:01:17.940Z,67.50
2019-02-09T11:02:17.930Z,73.12
2019-02-09T11:03:17.924Z,73.12
2019-02-09T11:04:17.915Z,73.12
2019-02-09T11:05:17.908Z,67.50
2019-02-09T11:06:17.892Z,67.50
2019-02-09T11:07:17.875Z,67.50
2019-02-09T11:08:17.879Z,67.50
2019-02-09T11:09:17.871Z,67.50
2019-02-09T11:10:17.869Z,67.50
2019-02-09T11:11:17.846Z,67.50
2019-02-09T11:12:17.816Z,67.50
2019-02-09T11:13:17.828Z,67.50
2019-02-09T11:14:17.798Z,67.50
2019-02-09T11:15:17.813Z,67.50
2019-02-09T11:16:17.779Z,67.50
2019-02-09T11:17:17.764Z,67.50
2019-02-09T11:18:17.754Z,67.50
2019-02-09T11:19:17.746Z,67.50
2019-02-09T11:20:17.727Z,67.50
2019-02-09T11:21:17.732Z,67.50
2019-02-09T11:22:17.710Z,67.50
2019-02-09T11:23:17.706Z,67.50
2019-02-09T11:24:17.687Z,61.88
2019-02-09T11:25:17.689Z,61.88
2019-02-09T11:26:17.700Z,56.25
2019-02-09T11:27:17.677Z,56.25
2019-02-09T11:28:17.650Z,56.25
2019-02-09T11:29:17.630Z,56.25
2019-02-09T11:30:17.625Z,50.62
2019-02-09T11:31:17.610Z,50.62
2019-02-09T11:32:17.624Z,50.62
2019-02-09T11:33:17.613Z,50.62
2019-02-09T11:34:17.579Z,50.62
2019-02-09T11:35:17.589Z,50.62
2019-02-09T11:36:17.577Z,50.62
2019-02-09T11:37:17.541Z,56.25
2019-02-09T11:38:17.528Z,61.88
2019-02-09T11:39:17.530Z,67.50
2019-02-09T11:40:17.530Z,67.50
2019-02-09T11:41:17.505Z,73.12
2019-02-09T11:42:17.760Z,73.12
2019-02-09T11:43:17.469Z,73.12
2019-02-09T11:44:17.466Z,73.12
2019-02-09T11:45:17.492Z,73.12
2019-02-09T11:46:17.458Z,78.75
2019-02-09T11:47:17.430Z,78.75
2019-02-09T11:48:17.448Z,78.75
2019-02-09T11:49:17.403Z,78.75
2019-02-09T11:50:17.432Z,78.75
2019-02-09T11:51:17.403Z,78.75
2019-02-09T11:52:17.379Z,78.75
2019-02-09T11:53:17.361Z,73.12
2019-02-09T11:54:17.383Z,67.50
2019-02-09T11:55:17.369Z,61.88
2019-02-09T11:56:17.328Z,61.88
2019-02-09T11:57:17.331Z,61.88
2019-02-09T11:58:17.298Z,61.88
2019-02-09T11:59:17.288Z,61.88
2019-02-09T12:00:17.290Z,61.88
2019-02-09T12:01:17.274Z,61.88
2019-02-09T12:02:17.253Z,61.88
2019-02-09T12:03:17.261Z,67.50
2019-02-09T12:04:17.257Z,67.50
2019-02-09T12:05:17.222Z,67.50
2019-02-09T12:06:17.209Z,67.50
2019-02-09T12:07:17.200Z,67.50
2019-02-09T12:08:17.182Z,67.50
2019-02-09T12:09:17.203Z,67.50
2019-02-09T12:10:17.247Z,61.88
2019-02-09T12:11:17.171Z,61.88
2019-02-09T12:12:17.154Z,61.88
2019-02-09T12:13:17.145Z,61.88
2019-02-09T12:14:17.130Z,61.88
2019-02-09T12:15:17.105Z,61.88
2019-02-09T12:16:17.545Z,61.88
2019-02-09T12:17:17.095Z,78.75
2019-02-09T12:18:17.075Z,106.88
2019-02-09T12:19:17.058Z,106.88
2019-02-09T12:20:17.047Z,118.12
2019-02-09T12:21:17.067Z,129.38
2019-02-09T12:22:17.056Z,135.00
2019-02-09T12:23:17.018Z,123.75
2019-02-09T12:24:17.018Z,129.38
2019-02-09T12:25:17.041Z,135.00
2019-02-09T12:26:16.981Z,123.75
2019-02-09T12:27:16.974Z,129.38
2019-02-09T12:28:16.970Z,129.38
2019-02-09T12:29:16.947Z,123.75
2019-02-09T12:30:16.931Z,151.88
2019-02-09T12:31:16.949Z,185.62
2019-02-09T12:32:16.921Z,112.50
2019-02-09T12:33:22.738Z,151.88
2019-02-09T12:34:17.882Z,118.12
2019-02-09T12:35:16.892Z,135.00
2019-02-09T12:36:16.877Z,118.12
2019-02-09T12:37:16.867Z,112.50
2019-02-09T12:38:16.876Z,95.62
2019-02-09T12:39:16.846Z,90.00
2019-02-09T12:40:16.829Z,90.00
2019-02-09T12:41:16.806Z,67.50
2019-02-09T12:42:16.826Z,67.50
2019-02-09T12:43:16.833Z,61.88
2019-02-09T12:44:16.781Z,56.25
2019-02-09T12:45:16.778Z,50.62
2019-02-09T12:46:16.757Z,50.62
2019-02-09T12:47:16.753Z,50.62
2019-02-09T12:48:16.772Z,50.62
2019-02-09T12:49:16.737Z,56.25
2019-02-09T12:50:16.706Z,50.62
2019-02-09T12:51:16.711Z,56.25
2019-02-09T12:52:16.712Z,56.25
2019-02-09T12:53:16.681Z,56.25
2019-02-09T12:54:16.655Z,56.25
2019-02-09T12:55:16.702Z,50.62
2019-02-09T12:56:16.668Z,50.62
2019-02-09T12:57:16.662Z,50.62
2019-02-09T12:58:16.612Z,50.62
2019-02-09T12:59:16.622Z,56.25
2019-02-09T13:00:16.589Z,56.25
2019-02-09T13:01:16.633Z,56.25
2019-02-09T13:02:16.568Z,56.25
2019-02-09T13:03:16.557Z,61.88
2019-02-09T13:04:16.590Z,61.88
2019-02-09T13:05:16.565Z,73.12
2019-02-09T13:06:16.555Z,56.25